createdAt,value
2023-04-18T00:02:02.955Z,97721.06
2023-04-18T00:04:50.651Z,97732.41
2023-04-18T00:07:36.617Z,97730.81
2023-04-18T00:10:22.457Z,97735.25
2023-04-18T00:13:08.368Z,97731.81
2023-04-18T00:15:54.333Z,97729.97
2023-04-18T00:18:40.253Z,97731.81
2023-04-18T00:21:25.893Z,97737.09
2023-04-18T00:24:11.696Z,97736.09
2023-04-18T00:26:57.288Z,97732.41
2023-04-18T00:29:42.602Z,97737.69
2023-04-18T00:32:28.536Z,97734.06
2023-04-18T00:35:14.241Z,97729.59
2023-04-18T00:37:59.852Z,97725.13
2023-04-18T00:40:45.357Z,97731.84
2023-04-18T00:43:30.757Z,97731.63
2023-04-18T00:46:16.294Z,97726.38
2023-04-18T00:49:02.542Z,97733.28
2023-04-18T00:51:48.379Z,97729.63
2023-04-18T00:54:34.057Z,97727.81
2023-04-18T00:57:19.385Z,97713.81
2023-04-18T01:00:10.143Z,97705.91
2023-04-18T01:02:56.114Z,97713.19
2023-04-18T01:05:43.178Z,97715.03
2023-04-18T01:08:28.626Z,97718.47
2023-04-18T01:11:16.500Z,97715.03
2023-04-18T01:14:04.204Z,97717.66
2023-04-18T01:16:49.881Z,97721.94
2023-04-18T01:19:40.810Z,97715.81
2023-04-18T01:22:26.989Z,97714.81
2023-04-18T01:25:12.501Z,97718.28
2023-04-18T01:27:58.846Z,97706.91
2023-04-18T01:30:46.558Z,97705.91
2023-04-18T01:33:32.045Z,97701.63
2023-04-18T01:36:17.681Z,97707.75
2023-04-18T01:39:04.078Z,97706.91
2023-04-18T01:41:49.796Z,97706.91
2023-04-18T01:44:35.438Z,97707.75
2023-04-18T01:47:20.921Z,97708.53
2023-04-18T01:50:06.862Z,97705.91
2023-04-18T01:52:52.501Z,97708.34
2023-04-18T01:55:37.907Z,97704.09
2023-04-18T01:58:25.253Z,97704.91
2023-04-18T02:01:11.149Z,97704.91
2023-04-18T02:03:56.882Z,97706.53
2023-04-18T02:06:42.882Z,97703.06
2023-04-18T02:09:28.621Z,97708.34
2023-04-18T02:12:13.995Z,97703.25
2023-04-18T02:14:59.624Z,97692.72
2023-04-18T02:17:45.897Z,97693.56
2023-04-18T02:20:34.950Z,97699.63
2023-04-18T02:23:20.392Z,97691.91
2023-04-18T02:26:06.054Z,97692.72
2023-04-18T02:28:51.941Z,97688.28
2023-04-18T02:31:40.850Z,97698.81
2023-04-18T02:34:26.512Z,97699.63
2023-04-18T02:37:12.128Z,97704.91
2023-04-18T02:39:59.600Z,97699.63
2023-04-18T02:42:48.516Z,97701.25
2023-04-18T02:45:34.080Z,97705.69
2023-04-18T02:48:19.520Z,97704.09
2023-04-18T02:51:06.421Z,97699.84
2023-04-18T02:53:55.180Z,97695.56
2023-04-18T02:56:42.971Z,97701.63
2023-04-18T02:59:34.777Z,97705.09
2023-04-18T03:02:31.958Z,97705.69
2023-04-18T03:05:24.730Z,97701.47
2023-04-18T03:08:13.858Z,97692.72
2023-04-18T03:10:59.719Z,97694.34
2023-04-18T03:13:47.184Z,97701.47
2023-04-18T03:16:33.429Z,97694.34
2023-04-18T03:19:22.024Z,97697.78
2023-04-18T03:22:10.053Z,97702.25
2023-04-18T03:25:02.845Z,97702.88
2023-04-18T03:28:08.922Z,97699.44
2023-04-18T03:30:54.401Z,97701.06
2023-04-18T03:33:39.988Z,97694.16
2023-04-18T03:36:28.920Z,97696.63
2023-04-18T03:39:14.820Z,97692.34
2023-04-18T03:42:02.134Z,97691.34
2023-04-18T03:44:47.796Z,97698.22
2023-04-18T03:47:33.713Z,97699.03
2023-04-18T03:50:19.818Z,97691.13
2023-04-18T03:53:06.752Z,97691.13
2023-04-18T03:55:54.775Z,97697.22
2023-04-18T03:58:43.743Z,97695.41
2023-04-18T04:01:29.319Z,97706.53
2023-04-18T04:04:15.663Z,97702.09
2023-04-18T04:07:01.841Z,97706.38
2023-04-18T04:09:48.902Z,97706.38
2023-04-18T04:12:34.860Z,97703.72
2023-04-18T04:15:20.519Z,97701.91
2023-04-18T04:18:11.636Z,97711.66
2023-04-18T04:21:01.152Z,97714.28
2023-04-18T04:23:57.035Z,97721.97
2023-04-18T04:26:50.851Z,97722.78
2023-04-18T04:29:41.268Z,97717.50
2023-04-18T04:32:27.665Z,97725.25
2023-04-18T04:35:13.752Z,97725.25
2023-04-18T04:38:01.734Z,97720.78
2023-04-18T04:40:54.064Z,97724.03
2023-04-18T04:43:41.345Z,97728.28
2023-04-18T04:46:30.393Z,97730.13
2023-04-18T04:49:16.758Z,97733.56
2023-04-18T04:52:03.148Z,97734.59
2023-04-18T04:54:49.731Z,97726.47
2023-04-18T04:57:37.631Z,97729.91
2023-04-18T05:00:34.005Z,97725.47
2023-04-18T05:03:19.917Z,97710.44
2023-04-18T05:06:05.972Z,97720.00
2023-04-18T05:08:51.680Z,97728.53
2023-04-18T05:11:37.366Z,97730.97
2023-04-18T05:14:23.146Z,97734.22
2023-04-18T05:17:08.943Z,97743.72
2023-04-18T05:19:54.733Z,97737.28
2023-04-18T05:22:40.566Z,97740.72
2023-04-18T05:25:26.950Z,97743.34
2023-04-18T05:28:12.588Z,97744.78
2023-04-18T05:31:01.503Z,97740.34
2023-04-18T05:33:47.278Z,97746.22
2023-04-18T05:36:33.116Z,97736.50
2023-04-18T05:39:18.765Z,97742.34
2023-04-18T05:42:04.257Z,97748.25
2023-04-18T05:44:49.793Z,97746.41
2023-04-18T05:47:35.573Z,97739.34
2023-04-18T05:50:21.651Z,97742.78
2023-04-18T05:53:07.292Z,97755.78
2023-04-18T05:55:52.838Z,97752.13
2023-04-18T05:58:38.530Z,97751.94
2023-04-18T06:01:24.050Z,97747.25
2023-04-18T06:04:09.738Z,97745.25
2023-04-18T06:06:54.989Z,97748.31
2023-04-18T06:09:40.514Z,97753.16
2023-04-18T06:12:26.162Z,97762.53
2023-04-18T06:15:11.769Z,97762.97
2023-04-18T06:17:57.252Z,97764.19
2023-04-18T06:20:44.058Z,97758.69
2023-04-18T06:23:29.827Z,97760.75
2023-04-18T06:26:15.925Z,97750.38
2023-04-18T06:29:01.423Z,97756.28
2023-04-18T06:31:48.534Z,97760.56
2023-04-18T06:34:34.155Z,97757.50
2023-04-18T06:37:20.016Z,97764.03
2023-04-18T06:40:06.588Z,97757.53
2023-04-18T06:42:52.412Z,97765.25
2023-04-18T06:45:38.345Z,97772.97
2023-04-18T06:48:23.993Z,97771.16
2023-04-18T06:51:09.452Z,97769.94
2023-04-18T06:53:55.003Z,97769.72
2023-04-18T06:56:40.819Z,97769.72
2023-04-18T06:59:27.215Z,97770.34
2023-04-18T07:02:13.242Z,97766.88
2023-04-18T07:04:58.954Z,97762.41
2023-04-18T07:07:44.543Z,97769.94
2023-04-18T07:10:30.124Z,97769.94
2023-04-18T07:13:16.131Z,97763.63
2023-04-18T07:16:02.191Z,97762.84
2023-04-18T07:18:47.457Z,97770.13
2023-04-18T07:21:33.052Z,97761.00
2023-04-18T07:24:18.416Z,97765.66
2023-04-18T07:27:03.838Z,97757.94
2023-04-18T07:29:51.056Z,97760.19
2023-04-18T07:32:36.566Z,97756.75
2023-04-18T07:35:22.576Z,97758.78
2023-04-18T07:38:08.624Z,97754.50
2023-04-18T07:40:58.676Z,97757.97
2023-04-18T07:43:44.982Z,97761.81
2023-04-18T07:46:32.441Z,97759.56
2023-04-18T07:49:18.352Z,97757.97
2023-04-18T07:52:04.525Z,97762.63
2023-04-18T07:54:50.441Z,97759.16
2023-04-18T07:57:35.923Z,97755.09
2023-04-18T08:00:21.638Z,97760.56
2023-04-18T08:03:07.809Z,97766.03
2023-04-18T08:05:53.730Z,97769.09
2023-04-18T08:08:39.535Z,97760.53
2023-04-18T08:11:24.693Z,97764.41
2023-04-18T08:14:10.189Z,97767.06
2023-04-18T08:16:55.800Z,97757.50
2023-04-18T08:19:41.520Z,97762.78
2023-04-18T08:22:26.894Z,97765.44
2023-04-18T08:25:12.721Z,97768.66
2023-04-18T08:27:58.939Z,97763.38
2023-04-18T08:30:48.784Z,97769.50
2023-04-18T08:33:34.516Z,97770.91
2023-04-18T08:36:20.123Z,97761.13
2023-04-18T08:39:06.500Z,97766.63
2023-04-18T08:41:59.555Z,97762.56
2023-04-18T08:44:46.773Z,97760.13
2023-04-18T08:47:35.359Z,97764.81
2023-04-18T08:50:21.490Z,97771.34
2023-04-18T08:53:07.564Z,97773.34
2023-04-18T08:55:54.519Z,97769.91
2023-04-18T08:58:40.455Z,97779.47
2023-04-18T09:01:57.215Z,97772.34
2023-04-18T09:04:45.517Z,97780.88
2023-04-18T09:07:31.143Z,97778.47
2023-04-18T09:10:26.430Z,97779.25
2023-04-18T09:13:12.550Z,97781.91
2023-04-18T09:15:59.248Z,97788.63
2023-04-18T09:19:13.131Z,97791.66
2023-04-18T09:22:01.060Z,97795.72
2023-04-18T09:24:52.838Z,97789.63
2023-04-18T09:27:38.307Z,97794.69
2023-04-18T09:30:33.142Z,97791.63
2023-04-18T09:33:29.149Z,97789.59
2023-04-18T09:36:28.657Z,97787.97
2023-04-18T09:39:27.304Z,97793.47
2023-04-18T09:42:13.981Z,97792.88
2023-04-18T09:45:05.613Z,97784.94
2023-04-18T09:47:52.175Z,97788.38
2023-04-18T09:50:40.290Z,97785.72
2023-04-18T09:53:26.685Z,97788.97
2023-04-18T09:56:24.031Z,97787.38
2023-04-18T09:59:11.400Z,97781.84
2023-04-18T10:01:59.229Z,97792.03
2023-04-18T10:04:46.946Z,97787.34
2023-04-18T10:07:33.183Z,97794.84
2023-04-18T10:10:19.217Z,97787.91
2023-04-18T10:13:07.126Z,97790.75
2023-04-18T10:15:52.928Z,97784.22
2023-04-18T10:18:38.888Z,97797.63
2023-04-18T10:21:24.780Z,97793.56
2023-04-18T10:24:48.664Z,97789.47
2023-04-18T10:27:49.691Z,97800.84
2023-04-18T10:30:42.575Z,97800.41
2023-04-18T10:33:42.416Z,97800.41
2023-04-18T10:36:28.781Z,97796.72
2023-04-18T10:39:23.240Z,97801.00
2023-04-18T10:42:08.825Z,97798.75
2023-04-18T10:45:17.280Z,97798.16
2023-04-18T10:48:22.097Z,97792.69
2023-04-18T10:51:15.724Z,97798.41
2023-04-18T10:54:02.371Z,97797.78
2023-04-18T10:56:55.189Z,97793.53
2023-04-18T10:59:51.173Z,97789.25
2023-04-18T11:02:39.186Z,97797.78
2023-04-18T11:05:28.014Z,97792.28
2023-04-18T11:08:24.263Z,97787.81
2023-04-18T11:11:11.412Z,97784.34
2023-04-18T11:13:58.672Z,97785.97
2023-04-18T11:16:44.226Z,97789.41
2023-04-18T11:19:29.957Z,97789.03
2023-04-18T11:22:15.999Z,97783.94
2023-04-18T11:25:07.236Z,97785.19
2023-04-18T11:27:52.984Z,97784.19
2023-04-18T11:30:40.862Z,97789.09
2023-04-18T11:33:29.078Z,97782.38
2023-04-18T11:36:14.826Z,97791.53
2023-04-18T11:39:01.055Z,97787.28
2023-04-18T11:41:50.489Z,97789.13
2023-04-18T11:44:39.764Z,97786.69
2023-04-18T11:47:28.797Z,97798.28
2023-04-18T11:50:14.730Z,97795.44
2023-04-18T11:52:59.943Z,97790.75
2023-04-18T11:55:55.968Z,97794.19
2023-04-18T11:58:42.207Z,97795.81
2023-04-18T12:01:27.865Z,97785.84
2023-04-18T12:04:14.456Z,97791.31
2023-04-18T12:07:00.977Z,97791.09
2023-04-18T12:09:46.657Z,97790.06
2023-04-18T12:12:32.371Z,97786.38
2023-04-18T12:15:18.949Z,97794.09
2023-04-18T12:18:06.210Z,97794.06
2023-04-18T12:20:54.206Z,97793.81
2023-04-18T12:23:42.524Z,97785.84
2023-04-18T12:26:27.997Z,97789.84
2023-04-18T12:29:13.732Z,97791.22
2023-04-18T12:31:59.355Z,97786.69
2023-04-18T12:34:45.037Z,97786.63
2023-04-18T12:37:30.720Z,97786.59
2023-04-18T12:40:19.058Z,97789.78
2023-04-18T12:43:04.765Z,97786.50
2023-04-18T12:45:50.540Z,97787.25
2023-04-18T12:48:36.371Z,97784.78
2023-04-18T12:51:22.972Z,97780.06
2023-04-18T12:54:08.997Z,97786.16
2023-04-18T12:56:54.657Z,97780.25
2023-04-18T12:59:40.095Z,97779.88
2023-04-18T13:02:26.646Z,97780.56
2023-04-18T13:05:14.320Z,97780.97
2023-04-18T13:08:15.392Z,97785.66
2023-04-18T13:11:02.853Z,97782.25
2023-04-18T13:13:48.417Z,97784.75
2023-04-18T13:16:33.829Z,97792.31
2023-04-18T13:19:19.261Z,97784.22
2023-04-18T13:22:04.865Z,97779.34
2023-04-18T13:24:50.581Z,97783.03
2023-04-18T13:27:41.816Z,97781.41
2023-04-18T13:30:27.751Z,97783.22
2023-04-18T13:33:13.463Z,97784.03
2023-04-18T13:35:58.813Z,97781.41
2023-04-18T13:38:44.194Z,97781.41
2023-04-18T13:41:30.146Z,97783.03
2023-04-18T13:44:15.981Z,97778.31
2023-04-18T13:47:02.803Z,97782.81
2023-04-18T13:49:48.384Z,97789.94
2023-04-18T13:52:33.721Z,97782.81
2023-04-18T13:55:19.810Z,97783.44
2023-04-18T13:58:07.062Z,97780.63
2023-04-18T14:00:54.036Z,97785.13
2023-04-18T14:03:41.277Z,97788.78
2023-04-18T14:06:28.961Z,97783.50
2023-04-18T14:09:14.676Z,97789.97
2023-04-18T14:12:00.306Z,97797.28
2023-04-18T14:14:45.974Z,97789.56
2023-04-18T14:17:31.581Z,97791.38
2023-04-18T14:20:20.523Z,97796.09
2023-04-18T14:23:06.075Z,97796.28
2023-04-18T14:25:51.825Z,97793.88
2023-04-18T14:28:37.553Z,97799.38
2023-04-18T14:31:23.081Z,97793.47
2023-04-18T14:34:09.602Z,97793.25
2023-04-18T14:36:55.417Z,97790.84
2023-04-18T14:39:41.151Z,97793.25
2023-04-18T14:42:27.312Z,97785.31
2023-04-18T14:45:12.906Z,97787.97
2023-04-18T14:47:59.279Z,97790.03
2023-04-18T14:50:44.900Z,97788.41
2023-04-18T14:53:30.647Z,97798.16
2023-04-18T14:56:24.293Z,97789.44
2023-04-18T14:59:10.031Z,97783.09
2023-04-18T15:01:55.774Z,97785.75
2023-04-18T15:04:41.206Z,97792.28
2023-04-18T15:07:27.027Z,97797.78
2023-04-18T15:10:13.108Z,97792.09
2023-04-18T15:12:58.124Z,97794.38
2023-04-18T15:15:50.979Z,97787.66
2023-04-18T15:18:37.007Z,97795.03
2023-04-18T15:21:22.834Z,97795.44
2023-04-18T15:24:08.347Z,97795.88
2023-04-18T15:26:53.885Z,97798.72
2023-04-18T15:29:39.434Z,97799.94
2023-04-18T15:32:25.049Z,97797.50
2023-04-18T15:35:11.835Z,97805.28
2023-04-18T15:37:57.759Z,97802.03
2023-04-18T15:40:46.117Z,97801.63
2023-04-18T15:43:32.109Z,97808.59
2023-04-18T15:46:17.685Z,97799.44
2023-04-18T15:49:03.500Z,97800.06
2023-04-18T15:51:48.885Z,97803.34
2023-04-18T15:54:35.733Z,97797.84
2023-04-18T15:57:21.861Z,97809.50
2023-04-18T16:00:16.225Z,97804.38
2023-04-18T16:03:01.891Z,97816.81
2023-04-18T16:05:47.806Z,97815.41
2023-04-18T16:08:33.580Z,97814.78
2023-04-18T16:11:21.705Z,97810.50
2023-04-18T16:14:07.483Z,97810.72
2023-04-18T16:16:55.020Z,97811.75
2023-04-18T16:19:41.065Z,97808.28
2023-04-18T16:22:26.877Z,97809.09
2023-04-18T16:25:12.165Z,97807.69
2023-04-18T16:27:57.521Z,97803.81
2023-04-18T16:30:43.954Z,97810.72
2023-04-18T16:33:29.541Z,97809.72
2023-04-18T16:36:15.467Z,97819.88
2023-04-18T16:39:01.220Z,97816.19
2023-04-18T16:41:46.575Z,97816.81
2023-04-18T16:44:33.271Z,97816.81
2023-04-18T16:47:19.261Z,97817.44
2023-04-18T16:50:05.924Z,97810.06
2023-04-18T16:52:51.121Z,97818.00
2023-04-18T16:55:36.680Z,97817.81
2023-04-18T16:58:23.202Z,97815.97
2023-04-18T17:01:09.049Z,97822.91
2023-04-18T17:03:54.579Z,97820.47
2023-04-18T17:06:42.190Z,97826.56
2023-04-18T17:09:27.877Z,97826.78
2023-04-18T17:12:13.187Z,97829.44
2023-04-18T17:15:02.589Z,97836.53
2023-04-18T17:17:48.542Z,97833.09
2023-04-18T17:20:35.924Z,97837.38
2023-04-18T17:23:21.967Z,97829.44
2023-04-18T17:26:08.592Z,97836.34
2023-04-18T17:28:54.295Z,97832.88
2023-04-18T17:31:39.855Z,97840.81
2023-04-18T17:34:25.656Z,97834.72
2023-04-18T17:37:11.697Z,97835.53
2023-04-18T17:39:59.012Z,97840.00
2023-04-18T17:42:44.407Z,97843.47
2023-04-18T17:45:29.951Z,97839.78
2023-04-18T17:48:16.350Z,97845.09
2023-04-18T17:51:02.228Z,97845.88
2023-04-18T17:53:47.933Z,97851.19
2023-04-18T17:56:33.437Z,97854.66
2023-04-18T17:59:19.145Z,97845.09
2023-04-18T18:02:05.549Z,97852.00
2023-04-18T18:04:51.708Z,97846.94
2023-04-18T18:07:38.382Z,97852.22
2023-04-18T18:10:24.535Z,97847.72
2023-04-18T18:13:10.107Z,97846.94
2023-04-18T18:15:57.252Z,97852.41
2023-04-18T18:18:46.539Z,97861.00
2023-04-18T18:21:31.799Z,97863.44
2023-04-18T18:24:18.752Z,97860.56
2023-04-18T18:27:04.697Z,97869.13
2023-04-18T18:29:51.380Z,97869.31
2023-04-18T18:32:36.893Z,97867.72
2023-04-18T18:35:22.350Z,97873.78
2023-04-18T18:38:08.060Z,97883.59
2023-04-18T18:40:53.538Z,97880.94
2023-04-18T18:43:38.929Z,97883.59
2023-04-18T18:46:24.569Z,97881.94
2023-04-18T18:49:10.360Z,97881.94
2023-04-18T18:51:56.955Z,97881.13
2023-04-18T18:54:42.866Z,97881.94
2023-04-18T18:57:28.398Z,97883.97
2023-04-18T19:00:14.309Z,97889.28
2023-04-18T19:03:00.404Z,97893.75
2023-04-18T19:05:46.549Z,97888.47
2023-04-18T19:08:31.925Z,97889.28
2023-04-18T19:11:18.910Z,97896.59
2023-04-18T19:14:04.693Z,97890.91
2023-04-18T19:16:50.720Z,97889.91
2023-04-18T19:19:36.563Z,97899.88
2023-04-18T19:22:22.371Z,97898.88
2023-04-18T19:25:08.926Z,97905.59
2023-04-18T19:27:54.145Z,97904.97
2023-04-18T19:30:40.160Z,97903.56
2023-04-18T19:33:26.352Z,97902.31
2023-04-18T19:36:12.484Z,97910.88
2023-04-18T19:38:58.217Z,97907.19
2023-04-18T19:41:43.639Z,97904.75
2023-04-18T19:44:31.241Z,97904.75
2023-04-18T19:47:16.752Z,97902.31
2023-04-18T19:50:02.365Z,97899.69
2023-04-18T19:52:48.159Z,97908.63
2023-04-18T19:55:33.337Z,97903.34
2023-04-18T19:58:45.223Z,97911.28
2023-04-18T20:01:31.282Z,97908.63
2023-04-18T20:04:17.186Z,97903.34
2023-04-18T20:07:03.142Z,97911.28
2023-04-18T20:09:48.670Z,97908.63
2023-04-18T20:12:34.457Z,97910.47
2023-04-18T20:15:20.023Z,97903.56
2023-04-18T20:18:05.494Z,97911.72
2023-04-18T20:20:51.363Z,97909.06
2023-04-18T20:23:37.703Z,97910.06
2023-04-18T20:26:23.403Z,97921.44
2023-04-18T20:29:08.971Z,97913.72
2023-04-18T20:31:54.592Z,97922.47
2023-04-18T20:34:40.360Z,97914.75
2023-04-18T20:37:27.813Z,97906.81
2023-04-18T20:40:13.397Z,97915.53
2023-04-18T20:42:58.983Z,97911.31
2023-04-18T20:45:46.032Z,97912.09
2023-04-18T20:48:31.651Z,97920.25
2023-04-18T20:51:17.219Z,97916.75
2023-04-18T20:54:03.457Z,97920.25
2023-04-18T20:56:49.018Z,97916.16
2023-04-18T20:59:34.454Z,97920.44
2023-04-18T21:02:19.915Z,97917.16
2023-04-18T21:05:05.869Z,97915.53
2023-04-18T21:07:51.332Z,97920.03
2023-04-18T21:10:36.809Z,97920.03
2023-04-18T21:13:22.064Z,97921.03
2023-04-18T21:16:10.247Z,97914.91
2023-04-18T21:18:56.085Z,97915.13
2023-04-18T21:21:41.557Z,97914.91
2023-04-18T21:24:26.920Z,97915.91
2023-04-18T21:27:12.280Z,97918.56
2023-04-18T21:29:57.588Z,97912.47
2023-04-18T21:32:43.083Z,97915.91
2023-04-18T21:35:30.084Z,97913.50
2023-04-18T21:38:15.815Z,97912.69
2023-04-18T21:41:01.790Z,97914.50
2023-04-18T21:43:47.853Z,97909.22
2023-04-18T21:46:33.620Z,97899.47
2023-04-18T21:49:19.676Z,97903.13
2023-04-18T21:52:05.382Z,97907.63
2023-04-18T21:54:51.178Z,97903.13
2023-04-18T21:57:36.530Z,97900.69
2023-04-18T22:00:22.079Z,97895.41
2023-04-18T22:03:08.892Z,97900.69
2023-04-18T22:05:58.174Z,97896.19
2023-04-18T22:08:43.887Z,97903.13
2023-04-18T22:11:29.393Z,97897.03
2023-04-18T22:14:15.061Z,97898.03
2023-04-18T22:17:04.877Z,97896.19
2023-04-18T22:19:50.714Z,97889.28
2023-04-18T22:22:35.855Z,97886.84
2023-04-18T22:25:21.530Z,97888.69
2023-04-18T22:28:07.291Z,97879.53
2023-04-18T22:30:53.075Z,97886.06
2023-04-18T22:33:38.505Z,97886.84
2023-04-18T22:36:25.084Z,97883.41
2023-04-18T22:39:12.134Z,97885.00
2023-04-18T22:41:57.528Z,97878.91
2023-04-18T22:44:42.908Z,97884.22
2023-04-18T22:47:28.460Z,97874.66
2023-04-18T22:50:14.729Z,97879.13
2023-04-18T22:53:00.347Z,97879.94
2023-04-18T22:55:46.469Z,97866.91
2023-04-18T22:58:32.013Z,97873.22
2023-04-18T23:01:17.935Z,97870.38
2023-04-18T23:04:03.735Z,97867.13
2023-04-18T23:06:49.511Z,97867.13
2023-04-18T23:09:35.094Z,97867.34
2023-04-18T23:12:21.101Z,97867.34
2023-04-18T23:15:07.297Z,97864.88
2023-04-18T23:17:53.885Z,97860.44
2023-04-18T23:20:39.717Z,97861.22
2023-04-18T23:23:25.268Z,97860.44
2023-04-18T23:26:16.841Z,97850.88
2023-04-18T23:29:02.425Z,97853.50
2023-04-18T23:31:48.222Z,97849.03
2023-04-18T23:34:33.656Z,97837.66
2023-04-18T23:37:19.533Z,97837.66
2023-04-18T23:40:06.973Z,97836.00
2023-04-18T23:42:52.604Z,97826.44
2023-04-18T23:45:38.095Z,97825.03
2023-04-18T23:48:23.569Z,97823.41
2023-04-18T23:51:09.130Z,97814.84
2023-04-18T23:53:54.506Z,97814.06
2023-04-18T23:56:39.833Z,97804.50
2023-04-18T23:59:25.357Z,97808.16
